Monte Creek, Canada
Current Conditions -  °F | °C
As of 12:00 PM on Sunday 21 Dec 2014 (Local Time) from CYKA Reporting Station
Broken Clouds Broken Clouds  
Wind Chill: 37°   Ceiling: 1600
Heat Index: 37°   Visibility: 40mi
Dew Point: 34°   Wind: 3mph
Humidity: 87%   Direction: 180°S
Pressure: 29.76"   Gusts: NA
Location:  50.65°N, 119.96°W
Report Text: CYKA 212000Z 18003KT 170V280 40SM FEW011 BKN016 BKN110 03/01 A2976 RMK SF1SC5AC1 SF TR SLP090
Loading
Personal Weather Stations






























Interactive Weather Map New forecast layout! Learn more

10-Day Weather Forecast

Advertisements
Track Severe Weather on mobile